sensor_id;sensor_type;location;lat;lon;timestamp;temperature;humidity
17774;DHT22;9011;33.236;-97.118;2023-02-02T00:02:16;-0.50;99.90
17774;DHT22;9011;33.236;-97.118;2023-02-02T00:04:44;-0.40;99.90
17774;DHT22;9011;33.236;-97.118;2023-02-02T00:07:12;-0.50;99.90
17774;DHT22;9011;33.236;-97.118;2023-02-02T00:09:41;-0.40;99.90
17774;DHT22;9011;33.236;-97.118;2023-02-02T00:12:09;-0.40;99.90
17774;DHT22;9011;33.236;-97.118;2023-02-02T00:14:39;-0.50;99.90
17774;DHT22;9011;33.236;-97.118;2023-02-02T00:17:09;-0.60;99.90
17774;DHT22;9011;33.236;-97.118;2023-02-02T00:19:38;-0.80;99.90
17774;DHT22;9011;33.236;-97.118;2023-02-02T00:22:06;-0.90;99.90
17774;DHT22;9011;33.236;-97.118;2023-02-02T00:24:34;-0.90;99.90
17774;DHT22;9011;33.236;-97.118;2023-02-02T00:27:03;-0.90;99.90
17774;DHT22;9011;33.236;-97.118;2023-02-02T00:29:31;-0.70;99.90
17774;DHT22;9011;33.236;-97.118;2023-02-02T00:32:01;-0.90;99.90
17774;DHT22;9011;33.236;-97.118;2023-02-02T00:34:30;-0.80;99.90
17774;DHT22;9011;33.236;-97.118;2023-02-02T00:36:58;-0.90;99.90
17774;DHT22;9011;33.236;-97.118;2023-02-02T00:39:26;-0.80;99.90
17774;DHT22;9011;33.236;-97.118;2023-02-02T00:41:55;-0.80;99.90
17774;DHT22;9011;33.236;-97.118;2023-02-02T00:44:23;-0.80;99.90
17774;DHT22;9011;33.236;-97.118;2023-02-02T00:47:10;-0.80;99.90
17774;DHT22;9011;33.236;-97.118;2023-02-02T00:49:38;-0.90;99.90
17774;DHT22;9011;33.236;-97.118;2023-02-02T00:52:07;-0.80;99.90
17774;DHT22;9011;33.236;-97.118;2023-02-02T00:54:35;-0.60;99.90
17774;DHT22;9011;33.236;-97.118;2023-02-02T00:57:04;-0.80;99.90
17774;DHT22;9011;33.236;-97.118;2023-02-02T00:59:32;-0.80;99.90
17774;DHT22;9011;33.236;-97.118;2023-02-02T01:02:01;-0.70;99.90
17774;DHT22;9011;33.236;-97.118;2023-02-02T01:04:31;-0.70;99.90
17774;DHT22;9011;33.236;-97.118;2023-02-02T01:06:59;-0.60;99.90
17774;DHT22;9011;33.236;-97.118;2023-02-02T01:09:27;-0.70;99.90
17774;DHT22;9011;33.236;-97.118;2023-02-02T01:11:56;-0.60;99.90
17774;DHT22;9011;33.236;-97.118;2023-02-02T01:14:24;-0.60;99.90
17774;DHT22;9011;33.236;-97.118;2023-02-02T01:16:53;-0.40;99.90
17774;DHT22;9011;33.236;-97.118;2023-02-02T01:19:21;-0.30;99.90
17774;DHT22;9011;33.236;-97.118;2023-02-02T01:21:51;-0.30;99.90
17774;DHT22;9011;33.236;-97.118;2023-02-02T01:24:19;-0.20;99.90
17774;DHT22;9011;33.236;-97.118;2023-02-02T01:26:48;-0.20;99.90
17774;DHT22;9011;33.236;-97.118;2023-02-02T01:29:16;-0.10;99.90
17774;DHT22;9011;33.236;-97.118;2023-02-02T01:31:44;-0.20;99.90
17774;DHT22;9011;33.236;-97.118;2023-02-02T01:34:13;-0.10;99.90
17774;DHT22;9011;33.236;-97.118;2023-02-02T01:36:41;-0.10;99.90
17774;DHT22;9011;33.236;-97.118;2023-02-02T01:39:11;-0.30;99.90
17774;DHT22;9011;33.236;-97.118;2023-02-02T01:41:40;-0.40;99.90
17774;DHT22;9011;33.236;-97.118;2023-02-02T01:47:09;0.00;99.90
17774;DHT22;9011;33.236;-97.118;2023-02-02T01:49:39;0.00;99.90
17774;DHT22;9011;33.236;-97.118;2023-02-02T01:52:09;0.10;99.90
17774;DHT22;9011;33.236;-97.118;2023-02-02T01:54:40;0.10;99.90
17774;DHT22;9011;33.236;-97.118;2023-02-02T01:57:13;0.10;99.90
17774;DHT22;9011;33.236;-97.118;2023-02-02T01:59:43;0.20;99.90
17774;DHT22;9011;33.236;-97.118;2023-02-02T02:02:13;0.20;99.90
17774;DHT22;9011;33.236;-97.118;2023-02-02T02:04:41;0.00;99.90
17774;DHT22;9011;33.236;-97.118;2023-02-02T02:07:10;0.20;99.90
17774;DHT22;9011;33.236;-97.118;2023-02-02T02:09:40;0.30;99.90
17774;DHT22;9011;33.236;-97.118;2023-02-02T02:12:13;0.20;99.90
17774;DHT22;9011;33.236;-97.118;2023-02-02T02:14:44;0.20;99.90
17774;DHT22;9011;33.236;-97.118;2023-02-02T02:17:44;-0.10;99.90
17774;DHT22;9011;33.236;-97.118;2023-02-02T02:20:36;0.00;99.90
17774;DHT22;9011;33.236;-97.118;2023-02-02T02:27:23;0.00;99.90
17774;DHT22;9011;33.236;-97.118;2023-02-02T02:30:24;-0.30;99.90
17774;DHT22;9011;33.236;-97.118;2023-02-02T02:33:03;-0.30;99.90
17774;DHT22;9011;33.236;-97.118;2023-02-02T02:35:36;-0.40;99.90
17774;DHT22;9011;33.236;-97.118;2023-02-02T02:38:13;-0.40;99.90
17774;DHT22;9011;33.236;-97.118;2023-02-02T02:40:48;0.00;99.90
17774;DHT22;9011;33.236;-97.118;2023-02-02T02:43:20;0.00;99.90
17774;DHT22;9011;33.236;-97.118;2023-02-02T02:45:50;0.00;99.90
17774;DHT22;9011;33.236;-97.118;2023-02-02T02:48:21;0.00;99.90
17774;DHT22;9011;33.236;-97.118;2023-02-02T02:50:50;-0.20;99.90
17774;DHT22;9011;33.236;-97.118;2023-02-02T02:53:20;-0.20;99.90
17774;DHT22;9011;33.236;-97.118;2023-02-02T02:56:06;-0.30;99.90
17774;DHT22;9011;33.236;-97.118;2023-02-02T02:58:44;-0.30;99.90
17774;DHT22;9011;33.236;-97.118;2023-02-02T03:01:19;-0.20;99.90
17774;DHT22;9011;33.236;-97.118;2023-02-02T03:04:07;-0.30;99.90
17774;DHT22;9011;33.236;-97.118;2023-02-02T03:06:41;-0.20;99.90
17774;DHT22;9011;33.236;-97.118;2023-02-02T03:09:13;-0.10;99.90
17774;DHT22;9011;33.236;-97.118;2023-02-02T03:11:43;-0.10;99.90
17774;DHT22;9011;33.236;-97.118;2023-02-02T03:14:12;-0.10;99.90
17774;DHT22;9011;33.236;-97.118;2023-02-02T03:16:41;-0.10;99.90
17774;DHT22;9011;33.236;-97.118;2023-02-02T03:19:11;-0.10;99.90
17774;DHT22;9011;33.236;-97.118;2023-02-02T03:21:41;0.00;99.90
17774;DHT22;9011;33.236;-97.118;2023-02-02T03:24:09;0.00;99.90
17774;DHT22;9011;33.236;-97.118;2023-02-02T03:26:38;-0.10;99.90
17774;DHT22;9011;33.236;-97.118;2023-02-02T03:29:09;0.00;99.90
17774;DHT22;9011;33.236;-97.118;2023-02-02T03:31:37;0.00;99.90
17774;DHT22;9011;33.236;-97.118;2023-02-02T03:34:06;-0.10;99.90
17774;DHT22;9011;33.236;-97.118;2023-02-02T03:36:36;-0.30;99.90
17774;DHT22;9011;33.236;-97.118;2023-02-02T03:39:04;-0.30;99.90
17774;DHT22;9011;33.236;-97.118;2023-02-02T03:41:33;-0.20;99.90
17774;DHT22;9011;33.236;-97.118;2023-02-02T03:44:01;-0.20;99.90
17774;DHT22;9011;33.236;-97.118;2023-02-02T03:46:30;-0.40;99.90
17774;DHT22;9011;33.236;-97.118;2023-02-02T03:48:58;-0.40;99.90
17774;DHT22;9011;33.236;-97.118;2023-02-02T03:51:26;-0.40;99.90
17774;DHT22;9011;33.236;-97.118;2023-02-02T03:53:56;-0.50;99.90
17774;DHT22;9011;33.236;-97.118;2023-02-02T03:56:25;-0.60;99.90
17774;DHT22;9011;33.236;-97.118;2023-02-02T03:58:53;-0.50;99.90
17774;DHT22;9011;33.236;-97.118;2023-02-02T04:01:26;-0.50;99.90
17774;DHT22;9011;33.236;-97.118;2023-02-02T04:03:55;-0.50;99.90
17774;DHT22;9011;33.236;-97.118;2023-02-02T04:06:24;-0.30;99.90
17774;DHT22;9011;33.236;-97.118;2023-02-02T04:08:53;-0.40;99.90
17774;DHT22;9011;33.236;-97.118;2023-02-02T04:11:23;-0.30;99.90
17774;DHT22;9011;33.236;-97.118;2023-02-02T04:13:51;-0.20;99.90
17774;DHT22;9011;33.236;-97.118;2023-02-02T04:16:20;-0.10;99.90
17774;DHT22;9011;33.236;-97.118;2023-02-02T04:18:48;0.00;99.90
17774;DHT22;9011;33.236;-97.118;2023-02-02T04:21:17;0.00;99.90
17774;DHT22;9011;33.236;-97.118;2023-02-02T04:23:45;0.00;99.90
17774;DHT22;9011;33.236;-97.118;2023-02-02T04:26:15;0.10;99.90
17774;DHT22;9011;33.236;-97.118;2023-02-02T04:28:45;0.20;99.90
17774;DHT22;9011;33.236;-97.118;2023-02-02T04:31:13;0.10;99.90
17774;DHT22;9011;33.236;-97.118;2023-02-02T04:33:41;0.00;99.90
17774;DHT22;9011;33.236;-97.118;2023-02-02T04:36:10;0.10;99.90
17774;DHT22;9011;33.236;-97.118;2023-02-02T04:38:38;0.30;99.90
17774;DHT22;9011;33.236;-97.118;2023-02-02T04:41:08;0.20;99.90
17774;DHT22;9011;33.236;-97.118;2023-02-02T04:43:37;0.30;99.90
17774;DHT22;9011;33.236;-97.118;2023-02-02T04:46:07;0.30;99.90
17774;DHT22;9011;33.236;-97.118;2023-02-02T04:48:35;0.30;99.90
17774;DHT22;9011;33.236;-97.118;2023-02-02T04:51:05;0.40;99.90
17774;DHT22;9011;33.236;-97.118;2023-02-02T04:53:34;0.40;99.90
17774;DHT22;9011;33.236;-97.118;2023-02-02T04:56:06;0.40;99.90
17774;DHT22;9011;33.236;-97.118;2023-02-02T04:58:35;0.20;99.90
17774;DHT22;9011;33.236;-97.118;2023-02-02T05:01:10;0.30;99.90
17774;DHT22;9011;33.236;-97.118;2023-02-02T05:03:39;0.30;99.90
17774;DHT22;9011;33.236;-97.118;2023-02-02T05:06:08;0.40;99.90
17774;DHT22;9011;33.236;-97.118;2023-02-02T05:08:36;0.40;99.90
17774;DHT22;9011;33.236;-97.118;2023-02-02T05:11:08;0.40;99.90
17774;DHT22;9011;33.236;-97.118;2023-02-02T05:13:36;0.30;99.90
17774;DHT22;9011;33.236;-97.118;2023-02-02T05:16:06;0.30;99.90
17774;DHT22;9011;33.236;-97.118;2023-02-02T05:18:36;0.20;99.90
17774;DHT22;9011;33.236;-97.118;2023-02-02T05:21:04;0.20;99.90
17774;DHT22;9011;33.236;-97.118;2023-02-02T05:23:33;0.10;99.90
17774;DHT22;9011;33.236;-97.118;2023-02-02T05:26:01;-0.10;99.90
17774;DHT22;9011;33.236;-97.118;2023-02-02T05:28:30;-0.10;99.90
17774;DHT22;9011;33.236;-97.118;2023-02-02T05:31:04;-0.10;99.90
17774;DHT22;9011;33.236;-97.118;2023-02-02T05:33:34;0.00;99.90
17774;DHT22;9011;33.236;-97.118;2023-02-02T05:36:06;-0.10;99.90
17774;DHT22;9011;33.236;-97.118;2023-02-02T05:38:34;-0.10;99.90
17774;DHT22;9011;33.236;-97.118;2023-02-02T05:41:03;-0.10;99.90
17774;DHT22;9011;33.236;-97.118;2023-02-02T05:43:32;-0.20;99.90
17774;DHT22;9011;33.236;-97.118;2023-02-02T05:46:01;-0.40;99.90
17774;DHT22;9011;33.236;-97.118;2023-02-02T05:48:29;-0.20;99.90
17774;DHT22;9011;33.236;-97.118;2023-02-02T05:51:03;-0.30;99.90
17774;DHT22;9011;33.236;-97.118;2023-02-02T05:53:33;-0.30;99.90
17774;DHT22;9011;33.236;-97.118;2023-02-02T05:56:01;-0.30;99.90
17774;DHT22;9011;33.236;-97.118;2023-02-02T05:58:30;-0.20;99.90
17774;DHT22;9011;33.236;-97.118;2023-02-02T06:00:58;-0.30;99.90
17774;DHT22;9011;33.236;-97.118;2023-02-02T06:03:27;-0.20;99.90
17774;DHT22;9011;33.236;-97.118;2023-02-02T06:05:55;-0.20;99.90
17774;DHT22;9011;33.236;-97.118;2023-02-02T06:08:26;-0.20;99.90
17774;DHT22;9011;33.236;-97.118;2023-02-02T06:10:54;-0.30;99.90
17774;DHT22;9011;33.236;-97.118;2023-02-02T06:13:22;-0.20;99.90
17774;DHT22;9011;33.236;-97.118;2023-02-02T06:15:51;-0.20;99.90
17774;DHT22;9011;33.236;-97.118;2023-02-02T06:18:19;-0.10;99.90
17774;DHT22;9011;33.236;-97.118;2023-02-02T06:20:47;-0.20;99.90
17774;DHT22;9011;33.236;-97.118;2023-02-02T06:23:16;-0.20;99.90
17774;DHT22;9011;33.236;-97.118;2023-02-02T06:25:46;0.00;99.90
17774;DHT22;9011;33.236;-97.118;2023-02-02T06:28:14;0.00;99.90
17774;DHT22;9011;33.236;-97.118;2023-02-02T06:30:43;0.10;99.90
17774;DHT22;9011;33.236;-97.118;2023-02-02T06:33:11;0.30;99.90
17774;DHT22;9011;33.236;-97.118;2023-02-02T06:35:39;0.40;99.90
17774;DHT22;9011;33.236;-97.118;2023-02-02T06:38:08;0.40;99.90
17774;DHT22;9011;33.236;-97.118;2023-02-02T06:40:37;0.40;99.90
17774;DHT22;9011;33.236;-97.118;2023-02-02T06:43:08;0.50;99.90
17774;DHT22;9011;33.236;-97.118;2023-02-02T06:45:40;0.30;99.90
17774;DHT22;9011;33.236;-97.118;2023-02-02T06:48:08;0.20;99.90
17774;DHT22;9011;33.236;-97.118;2023-02-02T06:50:38;0.20;99.90
17774;DHT22;9011;33.236;-97.118;2023-02-02T06:53:06;0.30;99.90
17774;DHT22;9011;33.236;-97.118;2023-02-02T06:55:35;0.30;99.90
17774;DHT22;9011;33.236;-97.118;2023-02-02T06:58:03;0.40;99.90
17774;DHT22;9011;33.236;-97.118;2023-02-02T07:00:33;0.30;99.90
17774;DHT22;9011;33.236;-97.118;2023-02-02T07:03:03;0.20;99.90
17774;DHT22;9011;33.236;-97.118;2023-02-02T07:05:32;-0.10;99.90
17774;DHT22;9011;33.236;-97.118;2023-02-02T07:08:01;-0.20;99.90
17774;DHT22;9011;33.236;-97.118;2023-02-02T07:10:29;-0.20;99.90
17774;DHT22;9011;33.236;-97.118;2023-02-02T07:12:58;-0.10;99.90
17774;DHT22;9011;33.236;-97.118;2023-02-02T07:15:26;-0.10;99.90
17774;DHT22;9011;33.236;-97.118;2023-02-02T07:17:56;-0.20;99.90
17774;DHT22;9011;33.236;-97.118;2023-02-02T07:20:26;-0.10;99.90
17774;DHT22;9011;33.236;-97.118;2023-02-02T07:22:55;-0.10;99.90
17774;DHT22;9011;33.236;-97.118;2023-02-02T07:25:23;0.00;99.90
17774;DHT22;9011;33.236;-97.118;2023-02-02T07:27:52;0.00;99.90
17774;DHT22;9011;33.236;-97.118;2023-02-02T07:30:21;0.00;99.90
17774;DHT22;9011;33.236;-97.118;2023-02-02T07:32:50;0.00;99.90
17774;DHT22;9011;33.236;-97.118;2023-02-02T07:35:20;0.00;99.90
17774;DHT22;9011;33.236;-97.118;2023-02-02T07:37:51;-0.20;99.90
17774;DHT22;9011;33.236;-97.118;2023-02-02T07:40:20;-0.10;99.90
17774;DHT22;9011;33.236;-97.118;2023-02-02T07:42:49;0.00;99.90
17774;DHT22;9011;33.236;-97.118;2023-02-02T07:45:17;0.10;99.90
17774;DHT22;9011;33.236;-97.118;2023-02-02T07:47:46;0.10;99.90
17774;DHT22;9011;33.236;-97.118;2023-02-02T07:50:14;0.30;99.90
17774;DHT22;9011;33.236;-97.118;2023-02-02T07:52:46;0.40;99.90
17774;DHT22;9011;33.236;-97.118;2023-02-02T07:55:15;0.10;99.90
17774;DHT22;9011;33.236;-97.118;2023-02-02T07:57:43;0.10;99.90
17774;DHT22;9011;33.236;-97.118;2023-02-02T08:00:12;0.30;99.90
17774;DHT22;9011;33.236;-97.118;2023-02-02T08:02:41;0.40;99.90
17774;DHT22;9011;33.236;-97.118;2023-02-02T08:05:10;0.30;99.90
17774;DHT22;9011;33.236;-97.118;2023-02-02T08:07:38;0.20;99.90
17774;DHT22;9011;33.236;-97.118;2023-02-02T08:10:09;0.10;99.90
17774;DHT22;9011;33.236;-97.118;2023-02-02T08:12:38;0.30;99.90
17774;DHT22;9011;33.236;-97.118;2023-02-02T08:15:07;0.40;99.90
17774;DHT22;9011;33.236;-97.118;2023-02-02T08:17:36;0.50;99.90
17774;DHT22;9011;33.236;-97.118;2023-02-02T08:20:05;0.40;99.90
17774;DHT22;9011;33.236;-97.118;2023-02-02T08:22:34;0.30;99.90
17774;DHT22;9011;33.236;-97.118;2023-02-02T08:25:03;0.20;99.90
17774;DHT22;9011;33.236;-97.118;2023-02-02T08:27:33;0.30;99.90
17774;DHT22;9011;33.236;-97.118;2023-02-02T08:30:01;0.20;99.90
17774;DHT22;9011;33.236;-97.118;2023-02-02T08:32:30;0.30;99.90
17774;DHT22;9011;33.236;-97.118;2023-02-02T08:34:59;0.20;99.90
17774;DHT22;9011;33.236;-97.118;2023-02-02T08:37:27;0.10;99.90
17774;DHT22;9011;33.236;-97.118;2023-02-02T08:39:56;0.10;99.90
17774;DHT22;9011;33.236;-97.118;2023-02-02T08:42:25;0.20;99.90
17774;DHT22;9011;33.236;-97.118;2023-02-02T08:44:55;-0.10;99.90
17774;DHT22;9011;33.236;-97.118;2023-02-02T08:47:23;0.00;99.90
17774;DHT22;9011;33.236;-97.118;2023-02-02T08:49:52;0.00;99.90
17774;DHT22;9011;33.236;-97.118;2023-02-02T08:52:20;-0.10;99.90
17774;DHT22;9011;33.236;-97.118;2023-02-02T08:54:49;-0.10;99.90
17774;DHT22;9011;33.236;-97.118;2023-02-02T08:57:17;-0.20;99.90
17774;DHT22;9011;33.236;-97.118;2023-02-02T08:59:46;-0.10;99.90
17774;DHT22;9011;33.236;-97.118;2023-02-02T09:02:16;0.00;99.90
17774;DHT22;9011;33.236;-97.118;2023-02-02T09:04:45;0.10;99.90
17774;DHT22;9011;33.236;-97.118;2023-02-02T09:07:14;0.10;99.90
17774;DHT22;9011;33.236;-97.118;2023-02-02T09:09:42;0.20;99.90
17774;DHT22;9011;33.236;-97.118;2023-02-02T09:12:11;0.10;99.90
17774;DHT22;9011;33.236;-97.118;2023-02-02T09:14:39;0.00;99.90
17774;DHT22;9011;33.236;-97.118;2023-02-02T09:17:08;0.10;99.90
17774;DHT22;9011;33.236;-97.118;2023-02-02T09:19:38;0.20;99.90
17774;DHT22;9011;33.236;-97.118;2023-02-02T09:22:06;0.20;99.90
17774;DHT22;9011;33.236;-97.118;2023-02-02T09:24:35;0.20;99.90
17774;DHT22;9011;33.236;-97.118;2023-02-02T09:27:03;0.30;99.90
17774;DHT22;9011;33.236;-97.118;2023-02-02T09:29:32;0.10;99.90
17774;DHT22;9011;33.236;-97.118;2023-02-02T09:32:00;0.10;99.90
17774;DHT22;9011;33.236;-97.118;2023-02-02T09:34:29;0.00;99.90
17774;DHT22;9011;33.236;-97.118;2023-02-02T09:36:59;0.10;99.90
17774;DHT22;9011;33.236;-97.118;2023-02-02T09:39:27;-0.10;99.90
17774;DHT22;9011;33.236;-97.118;2023-02-02T09:45:05;0.00;99.90
17774;DHT22;9011;33.236;-97.118;2023-02-02T09:47:53;0.00;99.90
17774;DHT22;9011;33.236;-97.118;2023-02-02T09:50:38;-0.10;99.90
17774;DHT22;9011;33.236;-97.118;2023-02-02T09:53:19;-0.20;99.90
17774;DHT22;9011;33.236;-97.118;2023-02-02T09:55:50;-0.10;99.90
17774;DHT22;9011;33.236;-97.118;2023-02-02T09:58:21;0.00;99.90
17774;DHT22;9011;33.236;-97.118;2023-02-02T10:00:55;-0.10;99.90
17774;DHT22;9011;33.236;-97.118;2023-02-02T10:03:30;-0.10;99.90
17774;DHT22;9011;33.236;-97.118;2023-02-02T10:06:05;0.00;99.90
17774;DHT22;9011;33.236;-97.118;2023-02-02T10:08:43;-0.10;99.90
17774;DHT22;9011;33.236;-97.118;2023-02-02T10:11:26;-0.10;99.90
17774;DHT22;9011;33.236;-97.118;2023-02-02T10:14:00;-0.10;99.90
17774;DHT22;9011;33.236;-97.118;2023-02-02T10:16:30;-0.10;99.90
17774;DHT22;9011;33.236;-97.118;2023-02-02T10:19:02;-0.20;99.90
17774;DHT22;9011;33.236;-97.118;2023-02-02T10:21:36;-0.20;99.90
17774;DHT22;9011;33.236;-97.118;2023-02-02T10:24:14;-0.10;99.90
17774;DHT22;9011;33.236;-97.118;2023-02-02T10:26:46;-0.10;99.90
17774;DHT22;9011;33.236;-97.118;2023-02-02T10:29:17;-0.10;99.90
17774;DHT22;9011;33.236;-97.118;2023-02-02T10:31:57;-0.20;99.90
17774;DHT22;9011;33.236;-97.118;2023-02-02T10:34:34;-0.20;99.90
17774;DHT22;9011;33.236;-97.118;2023-02-02T10:37:25;-0.20;99.90
17774;DHT22;9011;33.236;-97.118;2023-02-02T10:40:11;-0.30;99.90
17774;DHT22;9011;33.236;-97.118;2023-02-02T10:42:55;-0.20;99.90
17774;DHT22;9011;33.236;-97.118;2023-02-02T10:45:44;-0.10;99.90
17774;DHT22;9011;33.236;-97.118;2023-02-02T10:48:16;0.00;99.90
17774;DHT22;9011;33.236;-97.118;2023-02-02T10:50:48;0.00;99.90
17774;DHT22;9011;33.236;-97.118;2023-02-02T10:53:17;0.00;99.90
17774;DHT22;9011;33.236;-97.118;2023-02-02T10:55:52;0.10;99.90
17774;DHT22;9011;33.236;-97.118;2023-02-02T10:58:26;0.00;99.90
17774;DHT22;9011;33.236;-97.118;2023-02-02T11:00:57;0.00;99.90
17774;DHT22;9011;33.236;-97.118;2023-02-02T11:03:30;0.10;99.90
17774;DHT22;9011;33.236;-97.118;2023-02-02T11:06:02;0.10;99.90
17774;DHT22;9011;33.236;-97.118;2023-02-02T11:08:59;0.10;99.90
17774;DHT22;9011;33.236;-97.118;2023-02-02T11:11:34;0.10;99.90
17774;DHT22;9011;33.236;-97.118;2023-02-02T11:14:13;0.10;99.90
17774;DHT22;9011;33.236;-97.118;2023-02-02T11:16:45;0.10;99.90
17774;DHT22;9011;33.236;-97.118;2023-02-02T11:19:28;-0.10;99.90
17774;DHT22;9011;33.236;-97.118;2023-02-02T11:21:58;-0.10;99.90
17774;DHT22;9011;33.236;-97.118;2023-02-02T11:24:28;0.00;99.90
17774;DHT22;9011;33.236;-97.118;2023-02-02T11:27:06;-0.10;99.90
17774;DHT22;9011;33.236;-97.118;2023-02-02T11:29:42;-0.20;99.90
17774;DHT22;9011;33.236;-97.118;2023-02-02T11:32:24;-0.10;99.90
17774;DHT22;9011;33.236;-97.118;2023-02-02T11:35:16;0.00;99.90
17774;DHT22;9011;33.236;-97.118;2023-02-02T11:37:57;0.00;99.90
17774;DHT22;9011;33.236;-97.118;2023-02-02T11:40:30;0.00;99.90
17774;DHT22;9011;33.236;-97.118;2023-02-02T11:43:03;-0.10;99.90
17774;DHT22;9011;33.236;-97.118;2023-02-02T11:45:34;-0.10;99.90
17774;DHT22;9011;33.236;-97.118;2023-02-02T11:48:12;0.00;99.90
17774;DHT22;9011;33.236;-97.118;2023-02-02T11:50:45;0.10;99.90
17774;DHT22;9011;33.236;-97.118;2023-02-02T11:53:26;0.10;99.90
17774;DHT22;9011;33.236;-97.118;2023-02-02T11:55:58;0.20;99.90
17774;DHT22;9011;33.236;-97.118;2023-02-02T11:58:40;0.20;99.90
17774;DHT22;9011;33.236;-97.118;2023-02-02T12:01:25;0.10;99.90
17774;DHT22;9011;33.236;-97.118;2023-02-02T12:03:55;0.20;99.90
17774;DHT22;9011;33.236;-97.118;2023-02-02T12:06:24;0.20;99.90
17774;DHT22;9011;33.236;-97.118;2023-02-02T12:08:58;0.00;99.90
17774;DHT22;9011;33.236;-97.118;2023-02-02T12:11:43;0.00;99.90
17774;DHT22;9011;33.236;-97.118;2023-02-02T12:14:26;0.10;99.90
17774;DHT22;9011;33.236;-97.118;2023-02-02T12:17:06;0.20;99.90
17774;DHT22;9011;33.236;-97.118;2023-02-02T12:28:42;0.30;99.90
17774;DHT22;9011;33.236;-97.118;2023-02-02T12:31:23;0.30;99.90
17774;DHT22;9011;33.236;-97.118;2023-02-02T12:33:56;0.40;99.90
17774;DHT22;9011;33.236;-97.118;2023-02-02T12:36:42;0.50;99.90
17774;DHT22;9011;33.236;-97.118;2023-02-02T12:39:20;0.40;99.90
17774;DHT22;9011;33.236;-97.118;2023-02-02T12:42:12;0.50;99.90
17774;DHT22;9011;33.236;-97.118;2023-02-02T12:44:54;0.40;99.90
17774;DHT22;9011;33.236;-97.118;2023-02-02T12:47:32;0.40;99.90
17774;DHT22;9011;33.236;-97.118;2023-02-02T12:50:11;0.50;99.90
17774;DHT22;9011;33.236;-97.118;2023-02-02T12:52:56;0.50;99.90
17774;DHT22;9011;33.236;-97.118;2023-02-02T12:55:36;0.40;99.90
17774;DHT22;9011;33.236;-97.118;2023-02-02T12:58:15;0.50;99.90
17774;DHT22;9011;33.236;-97.118;2023-02-02T13:01:08;0.50;99.90
17774;DHT22;9011;33.236;-97.118;2023-02-02T13:03:59;0.30;99.90
17774;DHT22;9011;33.236;-97.118;2023-02-02T13:09:41;0.10;99.90
17774;DHT22;9011;33.236;-97.118;2023-02-02T13:12:14;0.20;99.90
17774;DHT22;9011;33.236;-97.118;2023-02-02T13:14:48;0.00;99.90
17774;DHT22;9011;33.236;-97.118;2023-02-02T13:17:20;0.00;99.90
17774;DHT22;9011;33.236;-97.118;2023-02-02T13:19:56;0.10;99.90
17774;DHT22;9011;33.236;-97.118;2023-02-02T13:22:31;0.00;99.90
17774;DHT22;9011;33.236;-97.118;2023-02-02T13:25:04;0.00;99.90
17774;DHT22;9011;33.236;-97.118;2023-02-02T13:27:35;0.00;99.90
17774;DHT22;9011;33.236;-97.118;2023-02-02T13:30:15;0.00;99.90
17774;DHT22;9011;33.236;-97.118;2023-02-02T13:32:46;0.10;99.90
17774;DHT22;9011;33.236;-97.118;2023-02-02T13:35:19;0.00;99.90
17774;DHT22;9011;33.236;-97.118;2023-02-02T13:37:52;0.00;99.90
17774;DHT22;9011;33.236;-97.118;2023-02-02T13:40:25;-0.10;99.90
17774;DHT22;9011;33.236;-97.118;2023-02-02T13:43:02;-0.10;99.90
17774;DHT22;9011;33.236;-97.118;2023-02-02T13:45:42;-0.10;99.90
17774;DHT22;9011;33.236;-97.118;2023-02-02T13:48:24;0.00;99.90
17774;DHT22;9011;33.236;-97.118;2023-02-02T13:51:18;0.00;99.90
17774;DHT22;9011;33.236;-97.118;2023-02-02T13:54:09;0.00;99.90
17774;DHT22;9011;33.236;-97.118;2023-02-02T13:56:45;0.10;99.90
17774;DHT22;9011;33.236;-97.118;2023-02-02T13:59:37;0.10;99.90
17774;DHT22;9011;33.236;-97.118;2023-02-02T14:02:18;0.10;99.90
17774;DHT22;9011;33.236;-97.118;2023-02-02T14:04:55;0.10;99.90
17774;DHT22;9011;33.236;-97.118;2023-02-02T14:07:35;0.10;99.90
17774;DHT22;9011;33.236;-97.118;2023-02-02T14:10:06;0.30;99.90
17774;DHT22;9011;33.236;-97.118;2023-02-02T14:12:46;0.30;99.90
17774;DHT22;9011;33.236;-97.118;2023-02-02T14:15:15;0.40;99.90
17774;DHT22;9011;33.236;-97.118;2023-02-02T14:17:54;0.40;99.90
17774;DHT22;9011;33.236;-97.118;2023-02-02T14:20:45;0.30;99.90
17774;DHT22;9011;33.236;-97.118;2023-02-02T14:23:50;0.20;99.90
17774;DHT22;9011;33.236;-97.118;2023-02-02T14:29:34;0.10;99.90
17774;DHT22;9011;33.236;-97.118;2023-02-02T14:32:29;0.10;99.90
17774;DHT22;9011;33.236;-97.118;2023-02-02T14:37:48;0.00;99.90
17774;DHT22;9011;33.236;-97.118;2023-02-02T14:40:44;-0.10;99.90
17774;DHT22;9011;33.236;-97.118;2023-02-02T14:43:23;0.10;99.90
17774;DHT22;9011;33.236;-97.118;2023-02-02T14:49:23;0.40;99.90
17774;DHT22;9011;33.236;-97.118;2023-02-02T14:52:00;0.50;99.90
17774;DHT22;9011;33.236;-97.118;2023-02-02T14:54:34;0.60;99.90
17774;DHT22;9011;33.236;-97.118;2023-02-02T14:57:22;0.40;99.90
17774;DHT22;9011;33.236;-97.118;2023-02-02T14:59:53;0.40;99.90
17774;DHT22;9011;33.236;-97.118;2023-02-02T15:02:24;0.40;99.90
17774;DHT22;9011;33.236;-97.118;2023-02-02T15:08:23;0.50;99.90
17774;DHT22;9011;33.236;-97.118;2023-02-02T15:11:07;0.60;99.90
17774;DHT22;9011;33.236;-97.118;2023-02-02T15:13:59;0.60;99.90
17774;DHT22;9011;33.236;-97.118;2023-02-02T15:16:34;0.80;99.90
17774;DHT22;9011;33.236;-97.118;2023-02-02T15:19:11;0.50;99.90
17774;DHT22;9011;33.236;-97.118;2023-02-02T15:21:42;0.60;99.90
17774;DHT22;9011;33.236;-97.118;2023-02-02T15:24:20;0.70;99.90
17774;DHT22;9011;33.236;-97.118;2023-02-02T15:26:50;0.70;99.90
17774;DHT22;9011;33.236;-97.118;2023-02-02T15:29:32;0.70;99.90
17774;DHT22;9011;33.236;-97.118;2023-02-02T15:32:05;0.60;99.90
17774;DHT22;9011;33.236;-97.118;2023-02-02T15:34:39;0.70;99.90
17774;DHT22;9011;33.236;-97.118;2023-02-02T15:37:13;0.80;99.90
17774;DHT22;9011;33.236;-97.118;2023-02-02T15:39:45;1.10;99.90
17774;DHT22;9011;33.236;-97.118;2023-02-02T15:42:16;1.20;99.90
17774;DHT22;9011;33.236;-97.118;2023-02-02T15:45:05;1.20;99.90
17774;DHT22;9011;33.236;-97.118;2023-02-02T15:47:36;1.20;99.90
17774;DHT22;9011;33.236;-97.118;2023-02-02T15:50:17;0.90;99.90
17774;DHT22;9011;33.236;-97.118;2023-02-02T15:52:48;1.00;99.90
17774;DHT22;9011;33.236;-97.118;2023-02-02T15:55:22;1.10;99.90
17774;DHT22;9011;33.236;-97.118;2023-02-02T15:57:50;1.00;99.90
17774;DHT22;9011;33.236;-97.118;2023-02-02T16:00:28;0.80;99.90
17774;DHT22;9011;33.236;-97.118;2023-02-02T16:03:01;0.90;99.90
17774;DHT22;9011;33.236;-97.118;2023-02-02T16:05:47;1.10;99.90
17774;DHT22;9011;33.236;-97.118;2023-02-02T16:08:20;1.20;99.90
17774;DHT22;9011;33.236;-97.118;2023-02-02T16:10:50;1.20;99.90
17774;DHT22;9011;33.236;-97.118;2023-02-02T16:13:29;1.10;99.90
17774;DHT22;9011;33.236;-97.118;2023-02-02T16:16:02;1.30;99.90
17774;DHT22;9011;33.236;-97.118;2023-02-02T16:18:32;1.40;99.90
17774;DHT22;9011;33.236;-97.118;2023-02-02T16:21:05;1.20;99.90
17774;DHT22;9011;33.236;-97.118;2023-02-02T16:23:37;1.40;99.90
17774;DHT22;9011;33.236;-97.118;2023-02-02T16:26:06;1.40;99.90
17774;DHT22;9011;33.236;-97.118;2023-02-02T16:28:35;1.50;99.90
17774;DHT22;9011;33.236;-97.118;2023-02-02T16:31:05;1.50;99.90
17774;DHT22;9011;33.236;-97.118;2023-02-02T16:33:36;1.30;99.90
17774;DHT22;9011;33.236;-97.118;2023-02-02T16:36:17;1.30;99.90